sensor_id;sensor_type;location;lat;lon;timestamp;pressure;altitude;pressure_sealevel;temperature;humidity
47710;BME280;33473;51.640;5.892;2023-04-01T00:10:39;99000;;;15.6;58.0
47710;BME280;33473;51.640;5.892;2023-04-01T00:23:59;99000;;;15.8;58.0
47710;BME280;33473;51.640;5.892;2023-04-01T00:37:18;99000;;;15.6;59.0
47710;BME280;33473;51.640;5.892;2023-04-01T00:50:38;99000;;;15.5;59.0
47710;BME280;33473;51.640;5.892;2023-04-01T01:03:58;99000;;;15.7;59.0
47710;BME280;33473;51.640;5.892;2023-04-01T01:17:18;99000;;;15.3;60.0
47710;BME280;33473;51.640;5.892;2023-04-01T01:30:37;99000;;;15.2;60.0
47710;BME280;33473;51.640;5.892;2023-04-01T01:43:57;99100;;;15.0;60.0
47710;BME280;33473;51.640;5.892;2023-04-01T01:57:17;99100;;;15.3;60.0
47710;BME280;33473;51.640;5.892;2023-04-01T02:10:36;99100;;;14.9;61.0
47710;BME280;33473;51.640;5.892;2023-04-01T02:23:56;99100;;;15.4;60.0
47710;BME280;33473;51.640;5.892;2023-04-01T02:37:16;99100;;;15.5;59.0
47710;BME280;33473;51.640;5.892;2023-04-01T02:50:35;99100;;;15.3;59.0
47710;BME280;33473;51.640;5.892;2023-04-01T03:03:55;99100;;;15.1;60.0
47710;BME280;33473;51.640;5.892;2023-04-01T03:17:15;99100;;;15.0;61.0
47710;BME280;33473;51.640;5.892;2023-04-01T03:30:35;99100;;;14.5;62.0
47710;BME280;33473;51.640;5.892;2023-04-01T03:43:54;99100;;;14.7;62.0
47710;BME280;33473;51.640;5.892;2023-04-01T03:57:14;99100;;;15.3;60.0
47710;BME280;33473;51.640;5.892;2023-04-01T04:10:34;99100;;;15.0;61.0
47710;BME280;33473;51.640;5.892;2023-04-01T04:23:53;99100;;;14.4;62.0
47710;BME280;33473;51.640;5.892;2023-04-01T04:37:13;99100;;;13.9;64.0
47710;BME280;33473;51.640;5.892;2023-04-01T04:50:33;99200;;;14.2;63.0
47710;BME280;33473;51.640;5.892;2023-04-01T05:03:53;99200;;;13.9;64.0
47710;BME280;33473;51.640;5.892;2023-04-01T05:17:12;99200;;;13.8;64.0
47710;BME280;33473;51.640;5.892;2023-04-01T05:30:32;99200;;;13.7;64.0
47710;BME280;33473;51.640;5.892;2023-04-01T05:43:52;99200;;;13.6;65.0
47710;BME280;33473;51.640;5.892;2023-04-01T05:57:11;99200;;;13.5;65.0
47710;BME280;33473;51.640;5.892;2023-04-01T06:10:31;99200;;;13.5;66.0
47710;BME280;33473;51.640;5.892;2023-04-01T06:23:51;99300;;;13.4;66.0
47710;BME280;33473;51.640;5.892;2023-04-01T06:50:30;99300;;;13.6;67.0
47710;BME280;33473;51.640;5.892;2023-04-01T07:17:10;99300;;;14.2;66.0
47710;BME280;33473;51.640;5.892;2023-04-01T07:30:29;99400;;;14.3;65.0
47710;BME280;33473;51.640;5.892;2023-04-01T07:43:49;99400;;;14.0;66.0
47710;BME280;33473;51.640;5.892;2023-04-01T07:57:09;99400;;;14.3;65.0
47710;BME280;33473;51.640;5.892;2023-04-01T08:10:28;99400;;;14.2;66.0
47710;BME280;33473;51.640;5.892;2023-04-01T08:23:48;99400;;;14.3;66.0
47710;BME280;33473;51.640;5.892;2023-04-01T08:37:08;99400;;;13.8;67.0
47710;BME280;33473;51.640;5.892;2023-04-01T08:50:27;99500;;;13.7;68.0
47710;BME280;33473;51.640;5.892;2023-04-01T09:03:47;99500;;;14.0;67.0
47710;BME280;33473;51.640;5.892;2023-04-01T09:17:07;99500;;;13.7;67.0
47710;BME280;33473;51.640;5.892;2023-04-01T09:30:27;99500;;;13.9;67.0
47710;BME280;33473;51.640;5.892;2023-04-01T09:43:46;99500;;;14.3;66.0
47710;BME280;33473;51.640;5.892;2023-04-01T09:57:06;99500;;;14.3;67.0
47710;BME280;33473;51.640;5.892;2023-04-01T10:10:25;99600;;;14.4;67.0
47710;BME280;33473;51.640;5.892;2023-04-01T10:23:45;99600;;;14.6;66.0
47710;BME280;33473;51.640;5.892;2023-04-01T10:37:05;99600;;;14.4;66.0
47710;BME280;33473;51.640;5.892;2023-04-01T10:50:25;99600;;;14.2;67.0
47710;BME280;33473;51.640;5.892;2023-04-01T11:03:44;99600;;;14.0;67.0
47710;BME280;33473;51.640;5.892;2023-04-01T11:17:04;99600;;;14.4;66.0
47710;BME280;33473;51.640;5.892;2023-04-01T11:30:24;99600;;;14.6;66.0
47710;BME280;33473;51.640;5.892;2023-04-01T11:43:43;99700;;;15.3;65.0
47710;BME280;33473;51.640;5.892;2023-04-01T11:57:03;99700;;;15.2;66.0
47710;BME280;33473;51.640;5.892;2023-04-01T12:10:23;99700;;;14.8;66.0
47710;BME280;33473;51.640;5.892;2023-04-01T12:23:43;99700;;;14.5;67.0
47710;BME280;33473;51.640;5.892;2023-04-01T12:37:02;99700;;;15.1;67.0
47710;BME280;33473;51.640;5.892;2023-04-01T12:50:22;99700;;;14.9;66.0
47710;BME280;33473;51.640;5.892;2023-04-01T13:03:42;99700;;;14.9;67.0
47710;BME280;33473;51.640;5.892;2023-04-01T13:17:01;99800;;;15.3;66.0
47710;BME280;33473;51.640;5.892;2023-04-01T13:30:21;99800;;;15.2;65.0
47710;BME280;33473;51.640;5.892;2023-04-01T13:43:41;99800;;;15.2;64.0
47710;BME280;33473;51.640;5.892;2023-04-01T13:57:01;99800;;;15.1;65.0
47710;BME280;33473;51.640;5.892;2023-04-01T14:10:20;99800;;;15.1;65.0
47710;BME280;33473;51.640;5.892;2023-04-01T14:23:40;99800;;;14.6;66.0
47710;BME280;33473;51.640;5.892;2023-04-01T14:37:00;99800;;;15.3;64.0
47710;BME280;33473;51.640;5.892;2023-04-01T14:50:19;99900;;;14.9;66.0
47710;BME280;33473;51.640;5.892;2023-04-01T15:03:39;99900;;;14.9;66.0
47710;BME280;33473;51.640;5.892;2023-04-01T15:16:59;99900;;;15.5;64.0
47710;BME280;33473;51.640;5.892;2023-04-01T15:30:19;99900;;;15.6;64.0
47710;BME280;33473;51.640;5.892;2023-04-01T15:43:38;99900;;;15.2;64.0
47710;BME280;33473;51.640;5.892;2023-04-01T15:56:58;99900;;;15.4;63.0
47710;BME280;33473;51.640;5.892;2023-04-01T16:10:18;100000;;;14.9;65.0
47710;BME280;33473;51.640;5.892;2023-04-01T16:23:37;100000;;;15.4;64.0
47710;BME280;33473;51.640;5.892;2023-04-01T16:36:57;100000;;;16.0;62.0
47710;BME280;33473;51.640;5.892;2023-04-01T16:50:17;100000;;;15.9;62.0
47710;BME280;33473;51.640;5.892;2023-04-01T17:03:37;100000;;;16.3;61.0
47710;BME280;33473;51.640;5.892;2023-04-01T17:16:56;100100;;;16.8;59.0
47710;BME280;33473;51.640;5.892;2023-04-01T17:30:16;100100;;;16.4;60.0
47710;BME280;33473;51.640;5.892;2023-04-01T17:43:36;100100;;;15.9;61.0
47710;BME280;33473;51.640;5.892;2023-04-01T17:56:55;100100;;;15.0;63.0
47710;BME280;33473;51.640;5.892;2023-04-01T18:10:15;100200;;;14.3;64.0
47710;BME280;33473;51.640;5.892;2023-04-01T18:23:35;100200;;;14.5;63.0
47710;BME280;33473;51.640;5.892;2023-04-01T18:36:55;100300;;;14.3;63.0
47710;BME280;33473;51.640;5.892;2023-04-01T18:50:14;100300;;;14.2;63.0
47710;BME280;33473;51.640;5.892;2023-04-01T19:03:34;100300;;;14.1;63.0
47710;BME280;33473;51.640;5.892;2023-04-01T19:16:54;100300;;;14.2;63.0
47710;BME280;33473;51.640;5.892;2023-04-01T19:30:13;100400;;;13.6;64.0
47710;BME280;33473;51.640;5.892;2023-04-01T19:43:33;100400;;;13.6;63.0
47710;BME280;33473;51.640;5.892;2023-04-01T19:56:53;100400;;;13.6;63.0
47710;BME280;33473;51.640;5.892;2023-04-01T20:10:13;100500;;;13.4;62.0
47710;BME280;33473;51.640;5.892;2023-04-01T20:23:32;100500;;;13.5;62.0
47710;BME280;33473;51.640;5.892;2023-04-01T20:36:52;100500;;;13.5;61.0
47710;BME280;33473;51.640;5.892;2023-04-01T20:50:12;100500;;;13.3;62.0
47710;BME280;33473;51.640;5.892;2023-04-01T21:03:31;100600;;;13.9;60.0
47710;BME280;33473;51.640;5.892;2023-04-01T21:16:51;100600;;;12.7;63.0
47710;BME280;33473;51.640;5.892;2023-04-01T21:30:11;100600;;;12.6;62.0
47710;BME280;33473;51.640;5.892;2023-04-01T21:43:30;100600;;;12.6;62.0
47710;BME280;33473;51.640;5.892;2023-04-01T21:56:50;100700;;;12.4;61.0
47710;BME280;33473;51.640;5.892;2023-04-01T22:10:10;100700;;;12.7;60.0
47710;BME280;33473;51.640;5.892;2023-04-01T22:23:29;100700;;;12.0;61.0
47710;BME280;33473;51.640;5.892;2023-04-01T22:36:49;100800;;;11.8;62.0
47710;BME280;33473;51.640;5.892;2023-04-01T22:50:09;100800;;;11.8;62.0
47710;BME280;33473;51.640;5.892;2023-04-01T23:03:28;100800;;;11.6;61.0
47710;BME280;33473;51.640;5.892;2023-04-01T23:16:48;100800;;;12.0;60.0
47710;BME280;33473;51.640;5.892;2023-04-01T23:30:07;100900;;;12.4;59.0
47710;BME280;33473;51.640;5.892;2023-04-01T23:43:27;100900;;;12.7;57.0
47710;BME280;33473;51.640;5.892;2023-04-01T23:56:47;100900;;;12.8;57.0
